sensor_id;sensor_type;location;lat;lon;timestamp;temperature;humidity
506;DHT22;551;48.524;9.056;2023-04-25T00:02:24;9.80;1.00
506;DHT22;551;48.524;9.056;2023-04-25T00:04:50;9.80;1.00
506;DHT22;551;48.524;9.056;2023-04-25T00:07:16;9.90;1.00
506;DHT22;551;48.524;9.056;2023-04-25T00:09:42;9.90;1.00
506;DHT22;551;48.524;9.056;2023-04-25T00:12:08;9.90;1.00
506;DHT22;551;48.524;9.056;2023-04-25T00:14:33;9.90;1.00
506;DHT22;551;48.524;9.056;2023-04-25T00:16:59;10.00;1.00
506;DHT22;551;48.524;9.056;2023-04-25T00:19:25;10.10;1.00
506;DHT22;551;48.524;9.056;2023-04-25T00:21:56;10.20;1.00
506;DHT22;551;48.524;9.056;2023-04-25T00:24:22;10.10;1.00
506;DHT22;551;48.524;9.056;2023-04-25T00:26:48;10.10;1.00
506;DHT22;551;48.524;9.056;2023-04-25T00:29:13;10.00;1.00
506;DHT22;551;48.524;9.056;2023-04-25T00:31:39;10.00;1.00
506;DHT22;551;48.524;9.056;2023-04-25T00:34:06;10.00;1.00
506;DHT22;551;48.524;9.056;2023-04-25T00:36:32;9.90;1.00
506;DHT22;551;48.524;9.056;2023-04-25T00:38:58;10.00;1.00
506;DHT22;551;48.524;9.056;2023-04-25T00:41:25;9.90;1.00
506;DHT22;551;48.524;9.056;2023-04-25T00:43:52;10.00;1.00
506;DHT22;551;48.524;9.056;2023-04-25T00:46:18;10.00;1.00
506;DHT22;551;48.524;9.056;2023-04-25T00:48:44;10.00;1.00
506;DHT22;551;48.524;9.056;2023-04-25T00:51:13;10.00;1.00
506;DHT22;551;48.524;9.056;2023-04-25T00:53:41;9.90;1.00
506;DHT22;551;48.524;9.056;2023-04-25T00:56:06;9.90;1.00
506;DHT22;551;48.524;9.056;2023-04-25T00:58:32;9.90;1.00
506;DHT22;551;48.524;9.056;2023-04-25T01:00:57;9.90;1.00
506;DHT22;551;48.524;9.056;2023-04-25T01:03:25;9.90;1.00
506;DHT22;551;48.524;9.056;2023-04-25T01:05:51;9.90;1.00
506;DHT22;551;48.524;9.056;2023-04-25T01:08:17;9.90;1.00
506;DHT22;551;48.524;9.056;2023-04-25T01:10:42;9.90;1.00
506;DHT22;551;48.524;9.056;2023-04-25T01:13:08;9.90;1.00
506;DHT22;551;48.524;9.056;2023-04-25T01:15:34;9.90;1.00
506;DHT22;551;48.524;9.056;2023-04-25T01:18:01;9.80;1.00
506;DHT22;551;48.524;9.056;2023-04-25T01:20:27;9.90;1.00
506;DHT22;551;48.524;9.056;2023-04-25T01:22:54;9.90;1.00
506;DHT22;551;48.524;9.056;2023-04-25T01:25:22;9.90;1.00
506;DHT22;551;48.524;9.056;2023-04-25T01:27:48;9.80;1.00
506;DHT22;551;48.524;9.056;2023-04-25T01:30:14;9.70;1.00
506;DHT22;551;48.524;9.056;2023-04-25T01:32:40;9.70;1.00
506;DHT22;551;48.524;9.056;2023-04-25T01:35:08;9.70;1.00
506;DHT22;551;48.524;9.056;2023-04-25T01:37:37;9.60;1.00
506;DHT22;551;48.524;9.056;2023-04-25T01:40:02;9.60;1.00
506;DHT22;551;48.524;9.056;2023-04-25T01:42:31;9.60;1.00
506;DHT22;551;48.524;9.056;2023-04-25T01:44:57;9.60;1.00
506;DHT22;551;48.524;9.056;2023-04-25T01:47:22;9.70;1.00
506;DHT22;551;48.524;9.056;2023-04-25T01:49:49;9.60;1.00
506;DHT22;551;48.524;9.056;2023-04-25T01:52:14;9.60;1.00
506;DHT22;551;48.524;9.056;2023-04-25T01:54:41;9.70;1.00
506;DHT22;551;48.524;9.056;2023-04-25T01:57:09;9.60;1.00
506;DHT22;551;48.524;9.056;2023-04-25T01:59:35;9.60;1.00
506;DHT22;551;48.524;9.056;2023-04-25T02:02:01;9.60;1.00
506;DHT22;551;48.524;9.056;2023-04-25T02:04:29;9.60;1.00
506;DHT22;551;48.524;9.056;2023-04-25T02:06:55;9.60;1.00
506;DHT22;551;48.524;9.056;2023-04-25T02:09:20;9.50;1.00
506;DHT22;551;48.524;9.056;2023-04-25T02:11:46;9.50;1.00
506;DHT22;551;48.524;9.056;2023-04-25T02:14:11;9.50;1.00
506;DHT22;551;48.524;9.056;2023-04-25T02:16:37;9.50;1.00
506;DHT22;551;48.524;9.056;2023-04-25T02:19:03;9.40;1.00
506;DHT22;551;48.524;9.056;2023-04-25T02:21:29;9.40;1.00
506;DHT22;551;48.524;9.056;2023-04-25T02:23:55;9.40;1.00
506;DHT22;551;48.524;9.056;2023-04-25T02:26:21;9.40;1.00
506;DHT22;551;48.524;9.056;2023-04-25T02:28:49;9.40;1.00
506;DHT22;551;48.524;9.056;2023-04-25T02:31:15;9.30;1.00
506;DHT22;551;48.524;9.056;2023-04-25T02:33:40;9.30;1.00
506;DHT22;551;48.524;9.056;2023-04-25T02:36:06;9.30;1.00
506;DHT22;551;48.524;9.056;2023-04-25T02:38:32;9.30;1.00
506;DHT22;551;48.524;9.056;2023-04-25T02:40:57;9.40;1.00
506;DHT22;551;48.524;9.056;2023-04-25T02:43:23;9.30;1.00
506;DHT22;551;48.524;9.056;2023-04-25T02:45:48;9.20;1.00
506;DHT22;551;48.524;9.056;2023-04-25T02:48:14;9.10;1.00
506;DHT22;551;48.524;9.056;2023-04-25T02:50:39;9.00;1.00
506;DHT22;551;48.524;9.056;2023-04-25T02:53:05;9.00;1.00
506;DHT22;551;48.524;9.056;2023-04-25T02:55:30;9.00;1.00
506;DHT22;551;48.524;9.056;2023-04-25T02:57:56;8.90;1.00
506;DHT22;551;48.524;9.056;2023-04-25T03:00:21;8.90;1.00
506;DHT22;551;48.524;9.056;2023-04-25T03:02:48;8.80;1.00
506;DHT22;551;48.524;9.056;2023-04-25T03:05:13;8.80;1.00
506;DHT22;551;48.524;9.056;2023-04-25T03:07:39;8.80;1.00
506;DHT22;551;48.524;9.056;2023-04-25T03:10:06;8.80;1.00
506;DHT22;551;48.524;9.056;2023-04-25T03:12:32;8.80;1.00
506;DHT22;551;48.524;9.056;2023-04-25T03:14:57;8.90;1.00
506;DHT22;551;48.524;9.056;2023-04-25T03:17:23;8.90;1.00
506;DHT22;551;48.524;9.056;2023-04-25T03:19:48;8.90;1.00
506;DHT22;551;48.524;9.056;2023-04-25T03:22:14;9.00;1.00
506;DHT22;551;48.524;9.056;2023-04-25T03:24:39;9.00;1.00
506;DHT22;551;48.524;9.056;2023-04-25T03:27:05;9.10;1.00
506;DHT22;551;48.524;9.056;2023-04-25T03:29:31;9.20;1.00
506;DHT22;551;48.524;9.056;2023-04-25T03:31:56;9.20;1.00
506;DHT22;551;48.524;9.056;2023-04-25T03:34:22;9.20;1.00
506;DHT22;551;48.524;9.056;2023-04-25T03:36:47;9.20;1.00
506;DHT22;551;48.524;9.056;2023-04-25T03:39:13;9.20;1.00
506;DHT22;551;48.524;9.056;2023-04-25T03:41:38;9.20;1.00
506;DHT22;551;48.524;9.056;2023-04-25T03:44:04;9.10;1.00
506;DHT22;551;48.524;9.056;2023-04-25T03:46:29;9.10;1.00
506;DHT22;551;48.524;9.056;2023-04-25T03:48:55;9.00;1.00
506;DHT22;551;48.524;9.056;2023-04-25T03:51:20;9.00;1.00
506;DHT22;551;48.524;9.056;2023-04-25T03:53:46;9.00;1.00
506;DHT22;551;48.524;9.056;2023-04-25T03:56:12;8.90;1.00
506;DHT22;551;48.524;9.056;2023-04-25T03:58:37;8.90;1.00
506;DHT22;551;48.524;9.056;2023-04-25T04:01:03;8.80;1.00
506;DHT22;551;48.524;9.056;2023-04-25T04:03:33;8.80;1.00
506;DHT22;551;48.524;9.056;2023-04-25T04:05:59;8.80;1.00
506;DHT22;551;48.524;9.056;2023-04-25T04:08:25;8.70;1.00
506;DHT22;551;48.524;9.056;2023-04-25T04:10:50;8.70;1.00
506;DHT22;551;48.524;9.056;2023-04-25T04:13:16;8.70;1.00
506;DHT22;551;48.524;9.056;2023-04-25T04:15:41;8.70;1.00
506;DHT22;551;48.524;9.056;2023-04-25T04:18:07;8.60;1.00
506;DHT22;551;48.524;9.056;2023-04-25T04:20:32;8.60;1.00
506;DHT22;551;48.524;9.056;2023-04-25T04:22:58;8.60;1.00
506;DHT22;551;48.524;9.056;2023-04-25T04:25:23;8.60;1.00
506;DHT22;551;48.524;9.056;2023-04-25T04:27:50;8.60;1.00
506;DHT22;551;48.524;9.056;2023-04-25T04:30:20;8.60;1.00
506;DHT22;551;48.524;9.056;2023-04-25T04:32:46;8.70;1.00
506;DHT22;551;48.524;9.056;2023-04-25T04:35:15;8.70;1.00
506;DHT22;551;48.524;9.056;2023-04-25T04:37:40;8.60;1.00
506;DHT22;551;48.524;9.056;2023-04-25T04:40:06;8.60;1.00
506;DHT22;551;48.524;9.056;2023-04-25T04:42:32;8.50;1.00
506;DHT22;551;48.524;9.056;2023-04-25T04:44:58;8.50;1.00
506;DHT22;551;48.524;9.056;2023-04-25T04:47:24;8.50;1.00
506;DHT22;551;48.524;9.056;2023-04-25T04:49:51;8.50;1.00
506;DHT22;551;48.524;9.056;2023-04-25T04:52:16;8.40;1.00
506;DHT22;551;48.524;9.056;2023-04-25T04:54:42;8.50;1.00
506;DHT22;551;48.524;9.056;2023-04-25T04:57:07;8.60;1.00
506;DHT22;551;48.524;9.056;2023-04-25T04:59:33;8.70;1.00
506;DHT22;551;48.524;9.056;2023-04-25T05:01:58;8.80;1.00
506;DHT22;551;48.524;9.056;2023-04-25T05:04:24;8.80;1.00
506;DHT22;551;48.524;9.056;2023-04-25T05:06:49;8.90;1.00
506;DHT22;551;48.524;9.056;2023-04-25T05:09:15;8.90;1.00
506;DHT22;551;48.524;9.056;2023-04-25T05:11:40;8.80;1.00
506;DHT22;551;48.524;9.056;2023-04-25T05:14:06;8.80;1.00
506;DHT22;551;48.524;9.056;2023-04-25T05:16:31;8.80;1.00
506;DHT22;551;48.524;9.056;2023-04-25T05:18:57;8.80;1.00
506;DHT22;551;48.524;9.056;2023-04-25T05:21:22;8.80;1.00
506;DHT22;551;48.524;9.056;2023-04-25T05:23:48;8.90;1.00
506;DHT22;551;48.524;9.056;2023-04-25T05:26:13;9.00;1.00
506;DHT22;551;48.524;9.056;2023-04-25T05:28:40;9.00;1.00
506;DHT22;551;48.524;9.056;2023-04-25T05:31:06;9.10;1.00
506;DHT22;551;48.524;9.056;2023-04-25T05:33:32;9.30;1.00
506;DHT22;551;48.524;9.056;2023-04-25T05:35:57;9.50;1.00
506;DHT22;551;48.524;9.056;2023-04-25T05:38:24;9.70;1.00
506;DHT22;551;48.524;9.056;2023-04-25T05:40:50;9.80;1.00
506;DHT22;551;48.524;9.056;2023-04-25T05:43:15;10.00;1.00
506;DHT22;551;48.524;9.056;2023-04-25T05:45:41;10.10;1.00
506;DHT22;551;48.524;9.056;2023-04-25T05:48:06;10.30;1.00
506;DHT22;551;48.524;9.056;2023-04-25T05:50:32;10.50;1.00
506;DHT22;551;48.524;9.056;2023-04-25T05:52:57;11.10;1.00
506;DHT22;551;48.524;9.056;2023-04-25T05:55:23;11.80;1.00
506;DHT22;551;48.524;9.056;2023-04-25T05:57:48;12.50;1.00
506;DHT22;551;48.524;9.056;2023-04-25T06:00:14;12.80;1.00
506;DHT22;551;48.524;9.056;2023-04-25T06:02:41;13.00;1.00
506;DHT22;551;48.524;9.056;2023-04-25T06:05:08;13.10;1.00
506;DHT22;551;48.524;9.056;2023-04-25T06:07:33;13.50;1.00
506;DHT22;551;48.524;9.056;2023-04-25T06:10:00;13.60;1.00
506;DHT22;551;48.524;9.056;2023-04-25T06:12:26;13.60;1.00
506;DHT22;551;48.524;9.056;2023-04-25T06:14:51;13.40;1.00
506;DHT22;551;48.524;9.056;2023-04-25T06:17:17;13.10;1.00
506;DHT22;551;48.524;9.056;2023-04-25T06:19:42;12.90;1.00
506;DHT22;551;48.524;9.056;2023-04-25T06:22:08;12.70;1.00
506;DHT22;551;48.524;9.056;2023-04-25T06:24:34;12.20;1.00
506;DHT22;551;48.524;9.056;2023-04-25T06:27:00;11.80;1.00
506;DHT22;551;48.524;9.056;2023-04-25T06:29:26;11.80;1.00
506;DHT22;551;48.524;9.056;2023-04-25T06:31:52;11.50;1.00
506;DHT22;551;48.524;9.056;2023-04-25T06:34:17;11.50;1.00
506;DHT22;551;48.524;9.056;2023-04-25T06:36:43;11.40;1.00
506;DHT22;551;48.524;9.056;2023-04-25T06:39:09;11.10;1.00
506;DHT22;551;48.524;9.056;2023-04-25T06:41:35;11.10;1.00
506;DHT22;551;48.524;9.056;2023-04-25T06:44:01;11.10;1.00
506;DHT22;551;48.524;9.056;2023-04-25T06:46:27;10.90;1.00
506;DHT22;551;48.524;9.056;2023-04-25T06:48:52;11.00;1.00
506;DHT22;551;48.524;9.056;2023-04-25T06:51:18;10.90;1.00
506;DHT22;551;48.524;9.056;2023-04-25T06:53:43;10.80;1.00
506;DHT22;551;48.524;9.056;2023-04-25T06:56:09;10.90;1.00
506;DHT22;551;48.524;9.056;2023-04-25T06:58:34;10.90;1.00
506;DHT22;551;48.524;9.056;2023-04-25T07:01:00;11.00;1.00
506;DHT22;551;48.524;9.056;2023-04-25T07:03:25;10.90;1.00
506;DHT22;551;48.524;9.056;2023-04-25T07:05:51;10.80;1.00
506;DHT22;551;48.524;9.056;2023-04-25T07:08:17;10.70;1.00
506;DHT22;551;48.524;9.056;2023-04-25T07:10:43;10.70;1.00
506;DHT22;551;48.524;9.056;2023-04-25T07:13:08;10.60;1.00
506;DHT22;551;48.524;9.056;2023-04-25T07:15:34;10.50;1.00
506;DHT22;551;48.524;9.056;2023-04-25T07:18:00;10.60;1.00
506;DHT22;551;48.524;9.056;2023-04-25T07:20:25;10.60;1.00
506;DHT22;551;48.524;9.056;2023-04-25T07:22:52;10.60;1.00
506;DHT22;551;48.524;9.056;2023-04-25T07:25:18;10.50;1.00
506;DHT22;551;48.524;9.056;2023-04-25T07:27:44;10.50;1.00
506;DHT22;551;48.524;9.056;2023-04-25T07:30:10;10.50;1.00
506;DHT22;551;48.524;9.056;2023-04-25T07:32:35;10.60;1.00
506;DHT22;551;48.524;9.056;2023-04-25T07:35:01;10.60;1.00
506;DHT22;551;48.524;9.056;2023-04-25T07:37:27;10.70;1.00
506;DHT22;551;48.524;9.056;2023-04-25T07:39:52;10.70;1.00
506;DHT22;551;48.524;9.056;2023-04-25T07:42:18;10.70;1.00
506;DHT22;551;48.524;9.056;2023-04-25T07:44:44;10.70;1.00
506;DHT22;551;48.524;9.056;2023-04-25T07:47:09;10.60;1.00
506;DHT22;551;48.524;9.056;2023-04-25T07:49:36;10.60;1.00
506;DHT22;551;48.524;9.056;2023-04-25T07:52:02;10.50;1.00
506;DHT22;551;48.524;9.056;2023-04-25T07:54:28;10.50;1.00
506;DHT22;551;48.524;9.056;2023-04-25T07:56:54;10.50;1.00
506;DHT22;551;48.524;9.056;2023-04-25T07:59:20;10.50;1.00
506;DHT22;551;48.524;9.056;2023-04-25T08:01:45;10.60;1.00
506;DHT22;551;48.524;9.056;2023-04-25T08:04:11;10.50;1.00
506;DHT22;551;48.524;9.056;2023-04-25T08:06:36;10.60;1.00
506;DHT22;551;48.524;9.056;2023-04-25T08:09:02;10.60;1.00
506;DHT22;551;48.524;9.056;2023-04-25T08:11:28;10.60;1.00
506;DHT22;551;48.524;9.056;2023-04-25T08:13:54;10.50;1.00
506;DHT22;551;48.524;9.056;2023-04-25T08:16:19;10.50;1.00
506;DHT22;551;48.524;9.056;2023-04-25T08:18:45;10.50;1.00
506;DHT22;551;48.524;9.056;2023-04-25T08:21:12;10.50;1.00
506;DHT22;551;48.524;9.056;2023-04-25T08:23:38;10.50;1.00
506;DHT22;551;48.524;9.056;2023-04-25T08:26:03;10.50;1.00
506;DHT22;551;48.524;9.056;2023-04-25T08:28:30;10.50;1.00
506;DHT22;551;48.524;9.056;2023-04-25T08:30:56;10.40;1.00
506;DHT22;551;48.524;9.056;2023-04-25T08:33:21;10.50;1.00
506;DHT22;551;48.524;9.056;2023-04-25T08:35:47;10.50;1.00
506;DHT22;551;48.524;9.056;2023-04-25T08:38:13;10.40;1.00
506;DHT22;551;48.524;9.056;2023-04-25T08:40:39;10.30;1.00
506;DHT22;551;48.524;9.056;2023-04-25T08:43:06;10.30;1.00
506;DHT22;551;48.524;9.056;2023-04-25T08:45:39;10.30;1.00
506;DHT22;551;48.524;9.056;2023-04-25T08:48:10;10.30;1.00
506;DHT22;551;48.524;9.056;2023-04-25T08:50:38;10.30;1.00
506;DHT22;551;48.524;9.056;2023-04-25T08:53:08;10.40;1.00
506;DHT22;551;48.524;9.056;2023-04-25T08:55:36;10.40;1.00
506;DHT22;551;48.524;9.056;2023-04-25T08:58:02;10.30;1.00
506;DHT22;551;48.524;9.056;2023-04-25T09:00:29;10.30;1.00
506;DHT22;551;48.524;9.056;2023-04-25T09:02:54;10.30;1.00
506;DHT22;551;48.524;9.056;2023-04-25T09:05:22;10.30;1.00
506;DHT22;551;48.524;9.056;2023-04-25T09:07:48;10.30;1.00
506;DHT22;551;48.524;9.056;2023-04-25T09:10:13;10.40;1.00
506;DHT22;551;48.524;9.056;2023-04-25T09:12:42;10.30;1.00
506;DHT22;551;48.524;9.056;2023-04-25T09:15:12;10.30;1.00
506;DHT22;551;48.524;9.056;2023-04-25T09:17:41;10.30;1.00
506;DHT22;551;48.524;9.056;2023-04-25T09:20:12;10.30;1.00
506;DHT22;551;48.524;9.056;2023-04-25T09:22:38;10.20;1.00
506;DHT22;551;48.524;9.056;2023-04-25T09:25:11;10.20;1.00
506;DHT22;551;48.524;9.056;2023-04-25T09:27:49;10.20;1.00
506;DHT22;551;48.524;9.056;2023-04-25T09:30:16;10.20;1.00
506;DHT22;551;48.524;9.056;2023-04-25T09:32:43;10.30;1.00
506;DHT22;551;48.524;9.056;2023-04-25T09:35:09;10.00;1.00
506;DHT22;551;48.524;9.056;2023-04-25T09:37:34;9.90;1.00
506;DHT22;551;48.524;9.056;2023-04-25T09:40:05;9.90;1.00
506;DHT22;551;48.524;9.056;2023-04-25T09:42:31;10.00;1.00
506;DHT22;551;48.524;9.056;2023-04-25T09:44:58;10.00;1.00
506;DHT22;551;48.524;9.056;2023-04-25T09:47:25;9.70;1.00
506;DHT22;551;48.524;9.056;2023-04-25T09:49:52;9.80;1.00
506;DHT22;551;48.524;9.056;2023-04-25T09:52:20;9.80;1.00
506;DHT22;551;48.524;9.056;2023-04-25T09:54:47;9.60;1.00
506;DHT22;551;48.524;9.056;2023-04-25T09:57:15;9.70;1.00
506;DHT22;551;48.524;9.056;2023-04-25T09:59:46;9.60;1.00
506;DHT22;551;48.524;9.056;2023-04-25T10:02:22;9.70;1.00
506;DHT22;551;48.524;9.056;2023-04-25T10:04:51;9.60;1.00
506;DHT22;551;48.524;9.056;2023-04-25T10:07:19;9.60;1.00
506;DHT22;551;48.524;9.056;2023-04-25T10:09:48;9.50;1.00
506;DHT22;551;48.524;9.056;2023-04-25T10:12:16;9.40;1.00
506;DHT22;551;48.524;9.056;2023-04-25T10:14:42;9.40;1.00
506;DHT22;551;48.524;9.056;2023-04-25T10:17:10;9.30;1.00
506;DHT22;551;48.524;9.056;2023-04-25T10:19:36;9.30;1.00
506;DHT22;551;48.524;9.056;2023-04-25T10:22:14;9.20;1.00
506;DHT22;551;48.524;9.056;2023-04-25T10:24:42;9.10;1.00
506;DHT22;551;48.524;9.056;2023-04-25T10:27:09;9.10;1.00
506;DHT22;551;48.524;9.056;2023-04-25T10:29:36;9.10;1.00
506;DHT22;551;48.524;9.056;2023-04-25T10:32:02;9.00;1.00
506;DHT22;551;48.524;9.056;2023-04-25T10:34:44;9.10;1.00
506;DHT22;551;48.524;9.056;2023-04-25T10:37:12;9.20;1.00
506;DHT22;551;48.524;9.056;2023-04-25T10:39:41;9.30;1.00
506;DHT22;551;48.524;9.056;2023-04-25T10:42:07;9.40;1.00
506;DHT22;551;48.524;9.056;2023-04-25T10:44:33;9.70;1.00
506;DHT22;551;48.524;9.056;2023-04-25T10:47:01;9.80;1.00
506;DHT22;551;48.524;9.056;2023-04-25T10:49:34;9.90;1.00
506;DHT22;551;48.524;9.056;2023-04-25T10:52:18;10.10;1.00
506;DHT22;551;48.524;9.056;2023-04-25T10:54:54;10.20;1.00
506;DHT22;551;48.524;9.056;2023-04-25T10:57:30;10.40;1.00
506;DHT22;551;48.524;9.056;2023-04-25T11:00:00;10.40;1.00
506;DHT22;551;48.524;9.056;2023-04-25T11:02:28;10.70;1.00
506;DHT22;551;48.524;9.056;2023-04-25T11:04:54;10.90;1.00
506;DHT22;551;48.524;9.056;2023-04-25T11:07:34;11.10;1.00
506;DHT22;551;48.524;9.056;2023-04-25T11:10:03;11.10;1.00
506;DHT22;551;48.524;9.056;2023-04-25T11:12:30;11.00;1.00
506;DHT22;551;48.524;9.056;2023-04-25T11:15:03;10.80;1.00
506;DHT22;551;48.524;9.056;2023-04-25T11:17:29;10.50;1.00
506;DHT22;551;48.524;9.056;2023-04-25T11:19:55;10.30;1.00
506;DHT22;551;48.524;9.056;2023-04-25T11:22:22;10.30;1.00
506;DHT22;551;48.524;9.056;2023-04-25T11:24:48;10.20;1.00
506;DHT22;551;48.524;9.056;2023-04-25T11:27:14;10.10;1.00
506;DHT22;551;48.524;9.056;2023-04-25T11:29:40;9.90;1.00
506;DHT22;551;48.524;9.056;2023-04-25T11:32:06;9.90;1.00
506;DHT22;551;48.524;9.056;2023-04-25T11:34:33;9.90;1.00
506;DHT22;551;48.524;9.056;2023-04-25T11:37:00;9.90;1.00
506;DHT22;551;48.524;9.056;2023-04-25T11:39:27;10.10;1.00
506;DHT22;551;48.524;9.056;2023-04-25T11:41:54;10.10;1.00
506;DHT22;551;48.524;9.056;2023-04-25T11:44:20;10.10;1.00
506;DHT22;551;48.524;9.056;2023-04-25T11:46:47;10.40;1.00
506;DHT22;551;48.524;9.056;2023-04-25T11:49:15;10.80;1.00
506;DHT22;551;48.524;9.056;2023-04-25T11:51:45;10.80;1.00
506;DHT22;551;48.524;9.056;2023-04-25T11:54:11;11.10;1.00
506;DHT22;551;48.524;9.056;2023-04-25T11:56:37;11.20;1.00
506;DHT22;551;48.524;9.056;2023-04-25T11:59:04;11.40;1.00
506;DHT22;551;48.524;9.056;2023-04-25T12:01:35;11.70;1.00
506;DHT22;551;48.524;9.056;2023-04-25T12:04:16;12.00;1.00
506;DHT22;551;48.524;9.056;2023-04-25T12:06:42;12.40;1.00
506;DHT22;551;48.524;9.056;2023-04-25T12:09:10;12.50;1.00
506;DHT22;551;48.524;9.056;2023-04-25T12:11:44;12.50;1.00
506;DHT22;551;48.524;9.056;2023-04-25T12:14:10;12.50;1.00
506;DHT22;551;48.524;9.056;2023-04-25T12:16:46;12.40;1.00
506;DHT22;551;48.524;9.056;2023-04-25T12:19:16;12.40;1.00
506;DHT22;551;48.524;9.056;2023-04-25T12:21:42;12.10;1.00
506;DHT22;551;48.524;9.056;2023-04-25T12:24:13;12.00;1.00
506;DHT22;551;48.524;9.056;2023-04-25T12:26:52;12.20;1.00
506;DHT22;551;48.524;9.056;2023-04-25T12:29:26;12.30;1.00
506;DHT22;551;48.524;9.056;2023-04-25T12:31:54;12.30;1.00
506;DHT22;551;48.524;9.056;2023-04-25T12:34:20;12.30;1.00
506;DHT22;551;48.524;9.056;2023-04-25T12:36:46;12.30;1.00
506;DHT22;551;48.524;9.056;2023-04-25T12:39:19;12.40;1.00
506;DHT22;551;48.524;9.056;2023-04-25T12:41:45;12.10;1.00
506;DHT22;551;48.524;9.056;2023-04-25T12:44:11;11.90;1.00
506;DHT22;551;48.524;9.056;2023-04-25T12:46:37;11.70;1.00
506;DHT22;551;48.524;9.056;2023-04-25T12:49:04;11.60;1.00
506;DHT22;551;48.524;9.056;2023-04-25T12:51:30;11.70;1.00
506;DHT22;551;48.524;9.056;2023-04-25T12:53:56;12.00;1.00
506;DHT22;551;48.524;9.056;2023-04-25T12:56:21;12.30;1.00
506;DHT22;551;48.524;9.056;2023-04-25T12:58:47;13.00;1.00
506;DHT22;551;48.524;9.056;2023-04-25T13:01:14;13.40;1.00
506;DHT22;551;48.524;9.056;2023-04-25T13:03:40;13.80;1.00
506;DHT22;551;48.524;9.056;2023-04-25T13:06:06;14.30;1.00
506;DHT22;551;48.524;9.056;2023-04-25T13:08:32;14.50;1.00
506;DHT22;551;48.524;9.056;2023-04-25T13:10:57;14.70;1.00
506;DHT22;551;48.524;9.056;2023-04-25T13:13:23;14.70;1.00
506;DHT22;551;48.524;9.056;2023-04-25T13:15:48;14.50;1.00
506;DHT22;551;48.524;9.056;2023-04-25T13:18:14;14.20;1.00
506;DHT22;551;48.524;9.056;2023-04-25T13:20:40;13.90;1.00
506;DHT22;551;48.524;9.056;2023-04-25T13:23:08;13.80;1.00
506;DHT22;551;48.524;9.056;2023-04-25T13:25:34;13.90;1.00
506;DHT22;551;48.524;9.056;2023-04-25T13:27:59;13.70;1.00
506;DHT22;551;48.524;9.056;2023-04-25T13:30:25;13.50;1.00
506;DHT22;551;48.524;9.056;2023-04-25T13:32:51;13.60;1.00
506;DHT22;551;48.524;9.056;2023-04-25T13:35:16;13.80;1.00
506;DHT22;551;48.524;9.056;2023-04-25T13:37:42;14.00;1.00
506;DHT22;551;48.524;9.056;2023-04-25T13:40:10;14.30;1.00
506;DHT22;551;48.524;9.056;2023-04-25T13:42:36;14.60;1.00
506;DHT22;551;48.524;9.056;2023-04-25T13:45:02;14.70;1.00
506;DHT22;551;48.524;9.056;2023-04-25T13:47:29;15.00;1.00
506;DHT22;551;48.524;9.056;2023-04-25T13:49:55;15.20;1.00
506;DHT22;551;48.524;9.056;2023-04-25T13:52:20;15.30;1.00
506;DHT22;551;48.524;9.056;2023-04-25T13:54:46;15.30;1.00
506;DHT22;551;48.524;9.056;2023-04-25T13:57:12;15.50;1.00
506;DHT22;551;48.524;9.056;2023-04-25T13:59:38;15.60;1.00
506;DHT22;551;48.524;9.056;2023-04-25T14:02:04;15.60;1.00
506;DHT22;551;48.524;9.056;2023-04-25T14:04:29;15.80;1.00
506;DHT22;551;48.524;9.056;2023-04-25T14:06:55;15.60;1.00
506;DHT22;551;48.524;9.056;2023-04-25T14:09:21;15.50;1.00
506;DHT22;551;48.524;9.056;2023-04-25T14:11:54;15.10;1.00
506;DHT22;551;48.524;9.056;2023-04-25T14:14:20;15.10;1.00
506;DHT22;551;48.524;9.056;2023-04-25T14:16:47;15.20;1.00
506;DHT22;551;48.524;9.056;2023-04-25T14:19:16;15.40;1.00
506;DHT22;551;48.524;9.056;2023-04-25T14:21:42;15.60;1.00
506;DHT22;551;48.524;9.056;2023-04-25T14:24:08;15.70;1.00
506;DHT22;551;48.524;9.056;2023-04-25T14:26:34;15.90;1.00
506;DHT22;551;48.524;9.056;2023-04-25T14:29:00;15.80;1.00
506;DHT22;551;48.524;9.056;2023-04-25T14:31:26;15.60;1.00
506;DHT22;551;48.524;9.056;2023-04-25T14:33:53;15.20;1.00
506;DHT22;551;48.524;9.056;2023-04-25T14:36:18;15.00;1.00
506;DHT22;551;48.524;9.056;2023-04-25T14:38:44;14.60;1.00
506;DHT22;551;48.524;9.056;2023-04-25T14:41:09;14.40;1.00
506;DHT22;551;48.524;9.056;2023-04-25T14:43:36;14.40;1.00
506;DHT22;551;48.524;9.056;2023-04-25T14:46:02;14.30;1.00
506;DHT22;551;48.524;9.056;2023-04-25T14:48:28;14.40;1.00
506;DHT22;551;48.524;9.056;2023-04-25T14:50:54;14.50;1.00
506;DHT22;551;48.524;9.056;2023-04-25T14:53:23;14.60;1.00
506;DHT22;551;48.524;9.056;2023-04-25T14:55:48;14.60;1.00
506;DHT22;551;48.524;9.056;2023-04-25T14:58:14;14.60;1.00
506;DHT22;551;48.524;9.056;2023-04-25T15:00:40;14.40;1.00
506;DHT22;551;48.524;9.056;2023-04-25T15:03:06;14.30;1.00
506;DHT22;551;48.524;9.056;2023-04-25T15:05:34;14.20;1.00
506;DHT22;551;48.524;9.056;2023-04-25T15:07:59;14.00;1.00
506;DHT22;551;48.524;9.056;2023-04-25T15:10:25;13.70;1.00
506;DHT22;551;48.524;9.056;2023-04-25T15:12:51;13.60;1.00
506;DHT22;551;48.524;9.056;2023-04-25T15:15:18;13.40;1.00
506;DHT22;551;48.524;9.056;2023-04-25T15:17:44;13.50;1.00
506;DHT22;551;48.524;9.056;2023-04-25T15:20:11;13.50;1.00
506;DHT22;551;48.524;9.056;2023-04-25T15:22:41;13.90;1.00
506;DHT22;551;48.524;9.056;2023-04-25T15:25:08;13.90;1.00
506;DHT22;551;48.524;9.056;2023-04-25T15:27:34;14.20;1.00
506;DHT22;551;48.524;9.056;2023-04-25T15:30:05;14.10;1.00
506;DHT22;551;48.524;9.056;2023-04-25T15:32:31;14.00;1.00
506;DHT22;551;48.524;9.056;2023-04-25T15:34:56;13.70;1.00
506;DHT22;551;48.524;9.056;2023-04-25T15:37:21;13.50;1.00
506;DHT22;551;48.524;9.056;2023-04-25T15:39:47;13.30;1.00
506;DHT22;551;48.524;9.056;2023-04-25T15:42:13;13.10;1.00
506;DHT22;551;48.524;9.056;2023-04-25T15:44:38;13.10;1.00
506;DHT22;551;48.524;9.056;2023-04-25T15:47:04;13.20;1.00
506;DHT22;551;48.524;9.056;2023-04-25T15:49:30;13.10;1.00
506;DHT22;551;48.524;9.056;2023-04-25T15:51:55;13.10;1.00
506;DHT22;551;48.524;9.056;2023-04-25T15:54:21;13.20;1.00
506;DHT22;551;48.524;9.056;2023-04-25T15:56:47;13.30;1.00
506;DHT22;551;48.524;9.056;2023-04-25T15:59:12;13.40;1.00
506;DHT22;551;48.524;9.056;2023-04-25T16:01:38;13.50;1.00
506;DHT22;551;48.524;9.056;2023-04-25T16:04:04;13.40;1.00
506;DHT22;551;48.524;9.056;2023-04-25T16:06:30;13.10;1.00
506;DHT22;551;48.524;9.056;2023-04-25T16:08:56;12.90;1.00
506;DHT22;551;48.524;9.056;2023-04-25T16:11:22;12.80;1.00
506;DHT22;551;48.524;9.056;2023-04-25T16:13:47;12.60;1.00
506;DHT22;551;48.524;9.056;2023-04-25T16:16:13;12.50;1.00
506;DHT22;551;48.524;9.056;2023-04-25T16:18:39;12.40;1.00
506;DHT22;551;48.524;9.056;2023-04-25T16:21:05;12.30;1.00
506;DHT22;551;48.524;9.056;2023-04-25T16:23:30;12.30;1.00
506;DHT22;551;48.524;9.056;2023-04-25T16:25:56;12.30;1.00
506;DHT22;551;48.524;9.056;2023-04-25T16:28:22;12.40;1.00
506;DHT22;551;48.524;9.056;2023-04-25T16:30:48;12.50;1.00
506;DHT22;551;48.524;9.056;2023-04-25T16:33:13;12.60;1.00
506;DHT22;551;48.524;9.056;2023-04-25T16:35:39;12.60;1.00
506;DHT22;551;48.524;9.056;2023-04-25T16:38:04;12.70;1.00
506;DHT22;551;48.524;9.056;2023-04-25T16:40:30;12.80;1.00
506;DHT22;551;48.524;9.056;2023-04-25T16:42:56;12.80;1.00
506;DHT22;551;48.524;9.056;2023-04-25T16:45:21;12.90;1.00
506;DHT22;551;48.524;9.056;2023-04-25T16:47:47;12.90;1.00
506;DHT22;551;48.524;9.056;2023-04-25T16:50:13;12.80;1.00
506;DHT22;551;48.524;9.056;2023-04-25T16:52:39;12.80;1.00
506;DHT22;551;48.524;9.056;2023-04-25T16:55:05;12.70;1.00